Historyczne dane pomiarowe

Dodano dane terminowe – wersja testowa.

Dane z okresu 1951-2019

Wersja bazy: 1.34 [2019-03-16, lista zmian], aktualizacja planowana na 2019-04-15

Dane meteo z obszaru Polski uzyskane na podstawie danych udostępnionych przez Instytut Meteorologii i Gospodarki Wodnej – Państwowy Instytut Badawczy.

 

Wybierz Datę:    

       

TemperaturaWilgotnośćWiatrCiśnienieOpadyŚniegCzas trwania zjawisk
 Stacja t tx tn tng RH VA  wxwx mslp ppp RRR   cm mm wxwxwxwxwxwxwx
1994-08-14 14.4 18.2 11.2- 83.8- 4.3 1.7---- 1.9------------
1994-08-13 18.3 23.5 16.5- 86.3- 6.7 2.0---- 3.6------------
1994-08-12 20.4 25.4 15.8- 78.0- 7.7 1.3---- 0.4------------
1994-08-11 20.3 25.3 13.9- 77.0- 6.7 1.3---- 0.5------------
1994-08-10 20.0 25.8 15.6- 82.8- 5.3 1.3---- 0.0------------
1994-08-09 18.0 20.6 16.1- 99.8- 8.0 1.0---- 17.0------------
1994-08-08 20.4 26.0 17.4- 85.3- 7.7 1.0---- 0.6------------
1994-08-07 24.2 29.0 20.2- 79.0- 3.3 1.3---- 1.2------------
1994-08-06 26.1 33.6 19.0- 65.8- 0.3 1.7---- 0.0------------
1994-08-05 25.3 31.5 19.8- 78.0- 1.3 1.3---- 0.0------------
1994-08-04 24.2 29.8 19.6- 82.8- 3.7 1.0---- 0.0------------
1994-08-03 24.5 28.7 21.1- 77.8- 4.7 2.3---- 2.7------------
1994-08-02 27.0 33.0 21.5- 72.0- 3.7 1.0---- 0.0------------
1994-08-01 27.8 35.3 20.7- 71.0- 3.3 1.0---- 1.4------------
1994-07-31 27.6 35.1 20.7- 68.8- 2.0 1.0---- 0.0------------
1994-07-30 27.6 35.6 20.4- 62.8- 1.0 1.0---- 0.0------------
1994-07-29 26.8 34.9 18.7- 63.3- 0.3 1.0---- 0.0------------
1994-07-28 26.2 35.1 18.7- 68.5- 0.0 1.0---- 0.0------------
1994-07-27 25.8 33.6 17.6- 74.0- 1.0 1.3---- 0.0------------
1994-07-26 25.9 33.1 18.9- 62.3- 0.3 1.3---- 0.0------------
1994-07-25 25.4 32.6 17.1- 62.8- 1.3 1.3---- 0.0------------
1994-07-24 23.2 30.6 16.3- 74.3- 1.3 1.0---- 0.0------------
1994-07-23 23.6 29.0 16.2- 69.5- 2.0 1.0---- 0.0------------
1994-07-22 20.2 27.6 14.2- 70.5- 0.3 1.3---- 0.0------------
1994-07-21 22.5 28.7 13.4- 64.3- 0.3 1.0---- 0.0------------
1994-07-20 18.9 24.4 13.1- 73.3- 3.0 1.3---- 0.0------------
1994-07-19 18.6 24.0 16.2- 74.0- 1.7 2.0---- 0.0------------
1994-07-18 20.3 25.1 15.7- 80.8- 6.3 1.7---- 0.0------------
1994-07-17 23.2 27.6 18.7- 75.3- 4.7 1.0---- 3.3------------
1994-07-16 24.1 31.8 17.2- 71.0- 1.7 1.0---- 0.0------------
1994-07-15 24.6 31.0 18.5- 71.3- 1.0 1.3---- 0.0------------
1994-07-14 26.1 31.4 20.3- 68.8- 6.0 1.3---- 0.0------------
1994-07-13 24.9 31.1 16.6- 67.3- 2.3 1.3---- 0.0------------
1994-07-12 23.8 30.1 16.6- 74.3- 0.7 1.3---- 0.0------------
1994-07-11 21.7 27.8 16.0- 78.8- 3.0 1.3---- 0.0------------
1994-07-10 18.2 25.6 13.0- 87.8- 2.7 1.3---- 3.1------------
1994-07-09 13.8 15.0 12.3- 99.0- 8.0 1.3---- 9.6------------
1994-07-08 16.4 24.7 13.1- 91.3- 7.3 1.7---- 20.0------------
1994-07-07 21.2 27.6 13.0- 71.3- 3.0 1.0---- 4.1------------
1994-07-06 20.4 26.2 13.1- 75.0- 4.0 1.0---- 0.0------------
1994-07-05 20.6 26.0 14.2- 71.5- 2.3 1.0---- 0.0------------
1994-07-04 21.3 27.4 13.1- 73.3- 0.3 1.0---- 0.0------------
1994-07-03 19.8 26.7 11.8- 64.5- 0.3 1.3---- 0.0------------
1994-07-02 19.0 24.8 11.4- 67.3- 0.0 1.0---- 0.0------------
1994-07-01 19.4 24.5 13.3- 69.5- 0.3 1.3---- 0.0------------
1994-06-30 22.7 27.0 19.5- 83.0- 7.3 2.0---- 0.0------------
1994-06-29 24.9 31.6 17.3- 72.8- 0.0 1.0---- 4.7------------
1994-06-28 23.5 29.1 16.6- 75.0- 0.0 1.0---- 0.0------------
1994-06-27 25.3 31.3 19.4- 74.0- 0.7 2.3---- 0.0------------
1994-06-26 21.9 30.6 11.3- 70.5- 0.3 1.3---- 0.0------------
1994-06-25 17.2 24.1 9.8- 71.8- 0.0 2.0---- 0.0------------
1994-06-24 14.9 19.6 8.8- 72.5- 3.3 3.0---- 0.0------------
1994-06-23 16.9 24.1 13.7- 65.5- 2.0 4.0---- 0.0------------
1994-06-22 19.0 24.4 12.3- 75.5- 7.3 3.3---- 0.0------------
1994-06-21 16.2 21.6 10.0- 73.8- 2.0 1.7---- 0.0------------
1994-06-20 16.8 20.0 14.3- 73.3- 4.0 3.0---- 0.0------------
1994-06-19 15.4 19.1 11.8- 88.5- 8.0 2.0---- 1.0------------
1994-06-18 14.3 19.1 6.7- 75.0- 7.0 1.7---- 2.5------------
1994-06-17 11.4 15.3 8.8- 78.3- 5.0 2.3---- 0.0------------
1994-06-16 12.5 16.1 10.0- 83.0- 8.0 2.3---- 2.1------------
290.6 ms

 

Źródłem pochodzenia danych jest Instytut Meteorologii i Gospodarki Wodnej – Państwowy Instytut Badawczy. Dane Instytutu Meteorologii i Gospodarki Wodnej – Państwowego Instytutu Badawczego zostały przetworzone.

Dane źródłowe można odnaleźć na stronie https://dane.imgw.pl